createdAt,value
2023-05-22T06:17:00.763Z,50.74
2023-05-22T06:22:02.800Z,51.33
2023-05-22T06:27:05.548Z,49.61
2023-05-22T06:32:10.251Z,52.56
2023-05-22T06:37:12.833Z,49.34
2023-05-22T06:42:15.069Z,47.18
2023-05-22T06:47:18.476Z,47.48
2023-05-22T06:52:20.624Z,52.72
2023-05-22T06:57:24.047Z,53.11
2023-05-22T07:02:27.488Z,57.10
2023-05-22T07:07:29.634Z,58.85
2023-05-22T07:12:31.628Z,59.54
2023-05-22T07:17:35.065Z,59.74
2023-05-22T07:22:37.161Z,57.72
2023-05-22T07:27:39.677Z,60.89
2023-05-22T07:32:43.891Z,60.21
2023-05-22T07:37:46.076Z,57.90
2023-05-22T07:42:47.943Z,57.83
2023-05-22T07:47:52.820Z,56.88
2023-05-22T07:52:56.553Z,58.90
2023-05-22T07:57:58.610Z,54.91
2023-05-22T08:03:01.951Z,54.09
2023-05-22T08:08:04.789Z,54.91
2023-05-22T08:13:06.884Z,54.91
2023-05-22T08:18:11.440Z,50.42
2023-05-22T08:23:13.559Z,48.75
2023-05-22T08:28:15.454Z,49.07
2023-05-22T08:33:19.703Z,48.44
2023-05-22T08:38:21.958Z,48.26
2023-05-22T08:43:24.441Z,47.89
2023-05-22T08:48:30.912Z,48.12
2023-05-22T08:53:35.815Z,48.81
2023-05-22T08:58:38.340Z,49.84
2023-05-22T09:03:43.394Z,48.24
2023-05-22T09:08:45.958Z,46.58
2023-05-22T09:13:49.075Z,46.46
2023-05-22T09:18:52.972Z,47.06
2023-05-22T09:23:59.103Z,45.92
2023-05-22T09:29:01.722Z,47.35
2023-05-22T09:34:08.083Z,45.37
2023-05-22T09:39:10.840Z,44.48
2023-05-22T09:44:14.082Z,45.21
2023-05-22T09:49:17.894Z,44.93
2023-05-22T09:54:27.815Z,100.00
2023-05-22T09:59:31.418Z,41.32
2023-05-22T10:04:34.893Z,43.01
2023-05-22T10:09:40.701Z,42.00
2023-05-22T10:14:43.600Z,42.45
2023-05-22T10:19:47.206Z,44.14
2023-05-22T10:24:50.828Z,41.40
2023-05-22T10:29:56.747Z,41.96
2023-05-22T10:35:08.786Z,42.85
2023-05-22T10:40:13.454Z,44.29
2023-05-22T10:45:16.607Z,43.65
2023-05-22T10:50:20.297Z,43.67
2023-05-22T10:55:22.850Z,43.32
2023-05-22T11:00:24.973Z,43.21
2023-05-22T11:05:34.789Z,43.64
2023-05-22T11:10:53.059Z,45.13
2023-05-22T11:15:56.500Z,46.58
2023-05-22T11:21:00.928Z,42.53
2023-05-22T11:26:20.225Z,46.03
2023-05-22T11:31:23.308Z,46.85
2023-05-22T11:36:27.740Z,43.31
2023-05-22T11:41:32.463Z,44.88
2023-05-22T11:46:35.782Z,44.75
2023-05-22T11:51:40.529Z,45.28
2023-05-22T11:56:42.641Z,43.38
2023-05-22T12:01:44.680Z,43.25
2023-05-22T12:06:48.348Z,45.33
2023-05-22T12:11:50.491Z,43.83
2023-05-22T12:16:53.295Z,42.71
2023-05-22T12:21:57.376Z,42.85
2023-05-22T12:26:59.335Z,43.12
2023-05-22T12:32:03.138Z,41.56
2023-05-22T12:37:18.306Z,43.37
2023-05-22T12:42:20.489Z,42.02
2023-05-22T12:47:23.604Z,43.87
2023-05-22T12:52:26.973Z,42.97
2023-05-22T12:57:28.958Z,40.96
2023-05-22T13:02:30.976Z,39.49
2023-05-22T13:07:34.454Z,40.62
2023-05-22T13:12:36.479Z,41.78
2023-05-22T13:17:38.548Z,41.09
2023-05-22T13:22:41.965Z,40.24
2023-05-22T13:27:43.977Z,40.50
2023-05-22T13:32:46.257Z,40.68
2023-05-22T13:37:50.031Z,42.45
2023-05-22T13:42:52.309Z,43.23
2023-05-22T13:47:54.452Z,43.57
2023-05-22T13:52:57.851Z,41.80
2023-05-22T13:57:59.856Z,42.01
2023-05-22T14:03:01.935Z,40.86
2023-05-22T14:08:05.368Z,42.98
2023-05-22T14:13:08.640Z,40.46
2023-05-22T14:18:11.193Z,42.89
2023-05-22T14:23:14.867Z,41.33
2023-05-22T14:28:17.179Z,41.73
2023-05-22T14:33:19.244Z,41.13
2023-05-22T14:38:22.610Z,43.85
2023-05-22T14:43:24.641Z,41.79
2023-05-22T14:48:26.874Z,42.05
2023-05-22T14:53:30.775Z,39.77
2023-05-22T14:58:32.886Z,40.66
2023-05-22T15:03:34.902Z,39.98
2023-05-22T15:08:38.339Z,40.71
2023-05-22T15:13:40.802Z,39.22
2023-05-22T15:18:42.832Z,40.65
2023-05-22T15:23:46.330Z,41.99
2023-05-22T15:28:48.384Z,41.82
2023-05-22T15:33:50.416Z,42.10
2023-05-22T15:38:53.802Z,43.38
2023-05-22T15:43:56.200Z,43.98
2023-05-22T15:48:58.200Z,43.24
2023-05-22T15:54:01.780Z,42.81
2023-05-22T15:59:03.872Z,44.37
2023-05-22T16:04:06.214Z,45.00
2023-05-22T16:09:09.987Z,45.05
2023-05-22T16:14:12.105Z,44.37
2023-05-22T16:19:14.548Z,43.11
2023-05-22T16:24:17.982Z,42.85
2023-05-22T16:29:23.062Z,44.21
2023-05-22T16:34:25.291Z,44.42
2023-05-22T16:39:28.647Z,45.44
2023-05-22T16:44:30.695Z,45.90
2023-05-22T16:49:32.688Z,46.57
2023-05-22T16:54:36.864Z,48.31
2023-05-22T16:59:38.902Z,48.88
2023-05-22T17:04:41.153Z,49.23
2023-05-22T17:09:44.568Z,49.24
2023-05-22T17:14:46.615Z,49.50
2023-05-22T17:19:48.646Z,49.95
2023-05-22T17:24:52.704Z,51.23
2023-05-22T17:29:54.718Z,51.48
2023-05-22T17:34:56.798Z,53.85
2023-05-22T17:40:00.503Z,57.41
2023-05-22T17:45:02.566Z,58.56
2023-05-22T17:50:05.011Z,61.04
2023-05-22T17:55:09.092Z,60.23
2023-05-22T18:00:12.535Z,60.76
2023-05-22T18:05:14.590Z,62.10
2023-05-22T18:10:18.151Z,64.75
2023-05-22T18:15:20.343Z,67.36
2023-05-22T18:20:22.361Z,70.55
2023-05-22T18:25:25.877Z,100.00
2023-05-22T18:30:28.552Z,100.00
2023-05-22T18:35:30.904Z,100.00
2023-05-22T18:40:34.347Z,100.00
2023-05-22T18:45:37.287Z,100.00
2023-05-22T18:50:39.591Z,81.11
2023-05-22T18:55:43.974Z,82.42
2023-05-22T19:00:46.356Z,83.69
2023-05-22T19:05:49.430Z,85.12
2023-05-22T19:10:52.916Z,86.49
2023-05-22T19:15:55.316Z,87.34
2023-05-22T19:20:58.372Z,87.96
2023-05-22T19:26:02.003Z,89.08
2023-05-22T19:31:05.088Z,90.36
2023-05-22T19:36:08.155Z,89.64
2023-05-22T19:41:11.586Z,89.86
2023-05-22T19:46:13.596Z,90.49
2023-05-22T19:51:16.069Z,90.51
2023-05-22T19:56:19.570Z,90.97
2023-05-22T20:01:22.202Z,91.75
2023-05-22T20:06:24.386Z,89.59
2023-05-22T20:11:28.622Z,91.02
2023-05-22T20:16:31.072Z,92.44
2023-05-22T20:21:33.940Z,93.64
2023-05-22T20:26:37.416Z,93.64
2023-05-22T20:31:39.666Z,93.64
2023-05-22T20:36:42.679Z,93.64
2023-05-22T20:41:49.652Z,93.64
2023-05-22T20:46:53.048Z,100.00
2023-05-22T20:51:55.396Z,100.00
2023-05-22T20:56:58.758Z,93.64
2023-05-22T21:02:01.318Z,96.05
2023-05-22T21:07:04.882Z,96.05
2023-05-22T21:12:08.688Z,100.00
2023-05-22T21:17:10.777Z,100.00
2023-05-22T21:22:12.820Z,100.00
2023-05-22T21:27:16.205Z,100.00
2023-05-22T21:32:18.231Z,100.00
2023-05-22T21:37:20.473Z,100.00
2023-05-22T21:42:25.954Z,100.00
2023-05-22T21:47:28.268Z,100.00
2023-05-22T21:52:30.446Z,100.00
2023-05-22T21:57:34.309Z,100.00
2023-05-22T22:02:36.429Z,100.00
2023-05-22T22:07:38.515Z,100.00
2023-05-22T22:12:41.878Z,100.00
2023-05-22T22:17:44.022Z,100.00
2023-05-22T22:22:46.130Z,100.00
2023-05-22T22:27:49.545Z,100.00
2023-05-22T22:32:52.122Z,100.00
2023-05-22T22:37:54.151Z,100.00
2023-05-22T22:42:57.490Z,100.00
2023-05-22T22:48:00.576Z,100.00
2023-05-22T22:53:02.733Z,100.00
2023-05-22T22:58:07.799Z,100.00
2023-05-22T23:03:09.844Z,100.00
2023-05-22T23:08:11.981Z,100.00
2023-05-22T23:13:16.111Z,100.00
2023-05-22T23:18:18.288Z,100.00
2023-05-22T23:23:20.340Z,100.00
2023-05-22T23:28:23.714Z,100.00
2023-05-22T23:33:25.686Z,100.00
2023-05-22T23:38:27.888Z,100.00
2023-05-22T23:43:31.218Z,100.00
2023-05-22T23:48:33.208Z,100.00
2023-05-22T23:53:35.709Z,100.00
2023-05-22T23:58:39.082Z,100.00
